Steele, Missouri
Current Conditions -  °F | °C
As of 11:53 AM on Wednesday 26 Nov 2014 (Local Time) from KHKA Reporting Station
Overcast Overcast  
Wind Chill: 12°   Ceiling: 8500
Heat Index: 12°   Visibility: 10mi
Dew Point:   Wind: 10mph
Humidity: 45%   Direction: 150°SSE
Pressure: 30.01"   Gusts: NA
Location:  36.08°N, 89.83°W
Report Text: KHKA 261753Z AUTO 15009KT 10SM FEW070 OVC085 12/00 A3001 RMK AO2 PRESFR SLP163 T01170000 10117 20044 58034
Loading
Personal Weather Stations






























Interactive Weather Map New forecast layout! Learn more

10-Day Weather Forecast

Advertisements
Track Severe Weather on mobile